Time;durP1;ratioP1;P1;durP2;ratioP2;P2;SDS_P1;SDS_P2;PMS_P1;PMS_P2;Temp;Humidity;BMP_temperature;BMP_pressure;BME280_temperature;BME280_humidity;BME280_pressure;Samples;Min_cycle;Max_cycle;Signal;HPM_P1;HPM_P2
2022/10/18 00:00:44;;;;;;;12.55;11.23;;;;;;;7.74;62.04;96449.03;5135761;28;20183;-68
2022/10/18 00:03:11;;;;;;;13.32;11.52;;;;;;;7.68;61.94;96448.28;5136050;28;20217;-68
2022/10/18 00:05:37;;;;;;;12.13;10.85;;;;;;;7.69;61.86;96440.88;5135708;28;20212;-67
2022/10/18 00:08:05;;;;;;;12.20;10.95;;;;;;;7.64;62.31;96435.47;5118590;28;20195;-68
2022/10/18 00:10:32;;;;;;;12.38;11.00;;;;;;;7.60;62.21;96437.19;5135882;28;20191;-67
2022/10/18 00:12:59;;;;;;;12.65;11.02;;;;;;;7.58;62.01;96437.47;5117469;28;20211;-67
2022/10/18 00:15:27;;;;;;;12.07;10.95;;;;;;;7.59;62.54;96430.06;5136180;28;20183;-67
2022/10/18 00:17:53;;;;;;;11.45;10.35;;;;;;;7.60;62.41;96429.78;5118688;28;20198;-67
2022/10/18 00:20:20;;;;;;;12.63;11.20;;;;;;;7.60;61.95;96421.53;5117768;28;20622;-68
2022/10/18 00:22:47;;;;;;;12.18;10.55;;;;;;;7.53;61.96;96423.03;5117930;28;20204;-67
2022/10/18 00:25:15;;;;;;;12.30;10.75;;;;;;;7.50;61.53;96426.38;5135828;28;20204;-67
2022/10/18 00:27:42;;;;;;;12.23;11.05;;;;;;;7.46;61.93;96417.94;5135878;28;20192;-68
2022/10/18 00:30:10;;;;;;;14.20;11.20;;;;;;;7.47;61.92;96411.31;5121064;27;20199;-67
2022/10/18 00:32:37;;;;;;;12.52;10.63;;;;;;;7.50;62.06;96412.66;5139663;27;20179;-67
2022/10/18 00:35:05;;;;;;;12.35;10.68;;;;;;;7.49;62.33;96398.13;5121352;27;20742;-67
2022/10/18 00:37:32;;;;;;;13.07;11.27;;;;;;;7.42;62.07;96409.47;5121603;27;20206;-67
2022/10/18 00:39:58;;;;;;;13.60;10.15;;;;;;;7.41;62.35;96401.56;5139407;27;20598;-67
2022/10/18 00:42:30;;;;;;;11.55;10.20;;;;;;;7.32;61.92;96401.41;5139486;27;20202;-67
2022/10/18 00:45:10;;;;;;;11.60;9.70;;;;;;;7.30;61.88;96400.91;5139696;27;20200;-68
2022/10/18 00:47:36;;;;;;;11.25;9.55;;;;;;;7.30;62.22;96389.09;5121405;27;20203;-68
2022/10/18 00:50:05;;;;;;;11.77;9.13;;;;;;;7.28;61.79;96388.59;5121843;27;20529;-68
2022/10/18 00:52:35;;;;;;;9.40;8.45;;;;;;;7.23;62.08;96389.50;5139279;27;20199;-68
2022/10/18 00:55:02;;;;;;;10.48;8.98;;;;;;;7.21;62.23;96394.47;5139245;27;20230;-68
2022/10/18 00:57:30;;;;;;;10.60;9.20;;;;;;;7.19;61.96;96391.22;5121249;27;20198;-68
2022/10/18 00:59:57;;;;;;;9.55;8.55;;;;;;;7.18;62.34;96387.63;5139625;27;20221;-68
2022/10/18 01:02:24;;;;;;;9.05;8.25;;;;;;;7.15;62.15;96385.50;5139169;27;20191;-68
2022/10/18 01:04:51;;;;;;;9.60;8.45;;;;;;;7.11;62.30;96386.38;5121318;27;20202;-68
2022/10/18 01:07:33;;;;;;;9.13;8.27;;;;;;;7.12;62.43;96390.78;5121088;27;20187;-68
2022/10/18 01:10:05;;;;;;;9.10;8.18;;;;;;;7.14;62.38;96389.34;5120937;27;20202;-68
2022/10/18 01:12:41;;;;;;;8.90;8.00;;;;;;;7.07;62.13;96388.91;5139134;27;20179;-68
2022/10/18 01:15:11;;;;;;;8.65;7.78;;;;;;;7.06;62.64;96381.78;5121188;27;20603;-68
2022/10/18 01:17:48;;;;;;;8.40;7.55;;;;;;;7.05;62.52;96379.38;5138864;27;20216;-68
2022/10/18 01:20:38;;;;;;;8.57;7.78;;;;;;;7.09;62.43;96374.91;5138956;27;20186;-68
2022/10/18 01:23:08;;;;;;;8.60;7.80;;;;;;;7.08;62.48;96385.06;5120798;27;20183;-68
2022/10/18 01:25:40;;;;;;;8.90;8.00;;;;;;;7.06;62.11;96381.78;5138737;27;20183;-68
2022/10/18 01:28:16;;;;;;;8.68;7.85;;;;;;;7.01;62.18;96379.16;5138729;27;20627;-68
2022/10/18 01:30:49;;;;;;;8.38;7.68;;;;;;;6.96;62.81;96374.53;5112451;27;20210;-68
2022/10/18 01:33:23;;;;;;;8.32;7.63;;;;;;;7.00;62.84;96367.34;5138535;27;20218;-68
2022/10/18 01:35:53;;;;;;;8.60;7.90;;;;;;;7.02;62.34;96372.53;5120255;27;20199;-67
2022/10/18 01:38:21;;;;;;;8.32;7.53;;;;;;;6.98;62.75;96368.75;5138587;27;20183;-67
2022/10/18 01:40:49;;;;;;;8.25;7.45;;;;;;;6.96;62.33;96373.72;5119589;27;20626;-67
2022/10/18 01:43:17;;;;;;;8.20;7.40;;;;;;;6.93;62.37;96366.91;5138646;27;20191;-68
2022/10/18 01:45:45;;;;;;;8.18;7.32;;;;;;;6.87;62.68;96365.38;5120246;27;20195;-68
2022/10/18 01:48:13;;;;;;;8.57;7.68;;;;;;;6.86;62.68;96374.72;5138436;27;20183;-68
2022/10/18 01:50:40;;;;;;;8.70;7.97;;;;;;;6.89;62.84;96363.13;5138494;27;20190;-68
2022/10/18 01:53:06;;;;;;;8.02;7.30;;;;;;;6.89;62.68;96357.63;5120180;27;20187;-68
2022/10/18 01:55:39;;;;;;;7.88;7.18;;;;;;;6.83;62.87;96358.03;5116253;28;20192;-68
2022/10/18 01:58:11;;;;;;;7.93;7.22;;;;;;;6.82;62.42;96362.69;5117695;28;20202;-68
2022/10/18 02:00:40;;;;;;;7.97;7.18;;;;;;;6.78;62.74;96361.66;5099664;28;20204;-68
2022/10/18 02:03:15;;;;;;;8.32;7.47;;;;;;;6.71;62.68;96361.19;5117142;28;20192;-68
2022/10/18 02:05:46;;;;;;;7.47;6.78;;;;;;;6.68;63.14;96357.16;5117472;28;20183;-68
2022/10/18 02:08:17;;;;;;;8.75;7.72;;;;;;;6.64;63.27;96353.34;5117228;28;20203;-69
2022/10/18 02:10:47;;;;;;;9.23;8.35;;;;;;;6.66;63.53;96353.06;5099769;28;20195;-68
2022/10/18 02:13:16;;;;;;;9.35;8.50;;;;;;;6.68;63.30;96348.94;5117180;28;20188;-68
2022/10/18 02:15:46;;;;;;;8.43;7.63;;;;;;;6.68;63.59;96353.56;5116865;28;20541;-68
2022/10/18 02:18:17;;;;;;;8.52;7.60;;;;;;;6.65;63.48;96356.94;5099707;28;20204;-68
2022/10/18 02:20:45;;;;;;;8.80;7.90;;;;;;;6.67;63.31;96355.50;5091166;28;20195;-68
2022/10/18 02:23:12;;;;;;;8.75;7.95;;;;;;;6.60;63.36;96354.25;5099169;28;20199;-68
2022/10/18 02:25:39;;;;;;;8.43;7.63;;;;;;;6.60;63.32;96352.31;5116972;28;20218;-68
2022/10/18 02:28:06;;;;;;;9.65;7.75;;;;;;;6.60;63.58;96346.81;5117199;28;20197;-68
2022/10/18 02:30:36;;;;;;;9.07;7.57;;;;;;;6.56;63.43;96342.25;5116953;28;20191;-67
2022/10/18 02:33:05;;;;;;;9.05;8.15;;;;;;;6.55;63.49;96344.19;5117071;28;20187;-67
2022/10/18 02:35:36;;;;;;;8.18;7.40;;;;;;;6.53;63.28;96349.13;5098951;28;20188;-67
2022/10/18 02:38:04;;;;;;;7.95;7.25;;;;;;;6.50;63.70;96352.47;5098932;28;20196;-67
2022/10/18 02:40:31;;;;;;;8.85;7.97;;;;;;;6.52;63.70;96355.72;5116774;28;20175;-67
2022/10/18 02:42:58;;;;;;;8.63;7.60;;;;;;;6.56;63.52;96353.22;5098673;28;20198;-67
2022/10/18 02:45:26;;;;;;;8.73;7.82;;;;;;;6.59;63.63;96355.38;5116262;28;20512;-67
2022/10/18 02:47:53;;;;;;;8.57;7.78;;;;;;;6.57;63.64;96358.38;5116736;28;20191;-67
2022/10/18 02:50:19;;;;;;;9.20;8.30;;;;;;;6.53;63.24;96356.53;5116660;28;20199;-67
2022/10/18 02:52:48;;;;;;;8.80;8.00;;;;;;;6.44;63.76;96361.88;5115643;28;20188;-67
2022/10/18 02:55:15;;;;;;;8.38;7.63;;;;;;;6.39;63.12;96359.19;5112660;28;20247;-68
2022/10/18 02:57:41;;;;;;;8.27;7.57;;;;;;;6.37;63.53;96359.50;5118587;27;20191;-67
2022/10/18 03:00:09;;;;;;;9.05;7.90;;;;;;;6.36;63.29;96362.53;5137080;27;20194;-67
2022/10/18 03:02:36;;;;;;;8.65;7.85;;;;;;;6.33;63.64;96354.91;5118843;27;20195;-68
2022/10/18 03:05:05;;;;;;;10.88;8.68;;;;;;;6.29;63.78;96353.88;5137028;27;20186;-68
2022/10/18 03:07:32;;;;;;;10.00;9.00;;;;;;;6.23;63.78;96355.84;5118766;27;20195;-68
2022/10/18 03:10:00;;;;;;;11.80;8.77;;;;;;;6.19;64.09;96355.63;5136474;27;20596;-68
2022/10/18 03:12:27;;;;;;;8.90;8.10;;;;;;;6.19;64.10;96349.31;5136611;27;20183;-68
2022/10/18 03:14:53;;;;;;;9.40;8.43;;;;;;;6.22;64.33;96349.56;5136213;27;20646;-68
2022/10/18 03:17:20;;;;;;;10.43;8.25;;;;;;;6.29;63.93;96346.47;5118711;28;20199;-68
2022/10/18 03:19:47;;;;;;;12.55;9.15;;;;;;;6.31;64.06;96346.97;5136595;27;20500;-68
2022/10/18 03:22:13;;;;;;;10.38;9.23;;;;;;;6.29;63.61;96359.34;5118798;27;20210;-68
2022/10/18 03:24:40;;;;;;;10.20;9.20;;;;;;;6.26;64.02;96350.59;5118740;27;20545;-67
2022/10/18 03:27:10;;;;;;;10.50;9.02;;;;;;;6.25;63.91;96353.63;5136263;27;20191;-67
2022/10/18 03:29:37;;;;;;;10.77;8.82;;;;;;;6.26;63.68;96355.25;5118645;27;20492;-67
2022/10/18 03:32:04;;;;;;;10.73;9.63;;;;;;;6.19;63.94;96350.13;5136125;27;20701;-67
2022/10/18 03:34:31;;;;;;;10.70;9.60;;;;;;;6.15;64.00;96343.63;5118362;27;20223;-67
2022/10/18 03:36:58;;;;;;;9.80;8.88;;;;;;;6.12;64.09;96351.59;5136311;27;20244;-67
2022/10/18 03:39:25;;;;;;;11.73;8.95;;;;;;;6.11;64.14;96350.78;5136257;27;20270;-67
2022/10/18 03:41:51;;;;;;;13.80;9.20;;;;;;;6.16;64.42;96347.16;5136352;27;20187;-67
2022/10/18 03:44:19;;;;;;;14.48;9.32;;;;;;;6.14;64.12;96352.94;5136663;27;20587;-66
2022/10/18 03:46:46;;;;;;;10.40;8.25;;;;;;;6.12;64.33;96354.34;5136769;27;20215;-66
2022/10/18 03:49:13;;;;;;;11.18;9.02;;;;;;;6.05;63.93;96354.69;5136746;27;20206;-66
2022/10/18 03:51:40;;;;;;;10.35;8.70;;;;;;;6.06;64.48;96358.25;5118536;28;20197;-66
2022/10/18 03:54:07;;;;;;;12.73;8.60;;;;;;;6.03;63.89;96354.19;5127711;27;20667;-66
2022/10/18 03:56:33;;;;;;;11.85;8.82;;;;;;;6.00;64.51;96361.06;5098388;28;20373;-66
2022/10/18 03:59:03;;;;;;;11.35;8.60;;;;;;;5.96;64.37;96357.28;5116238;28;20203;-66
2022/10/18 04:01:31;;;;;;;12.52;9.65;;;;;;;5.95;64.53;96361.09;5098384;28;20558;-66
2022/10/18 04:03:58;;;;;;;11.77;9.15;;;;;;;5.93;64.52;96362.53;5099575;28;20203;-66
2022/10/18 04:06:25;;;;;;;11.80;9.02;;;;;;;5.91;64.77;96356.47;5120325;28;20203;-66
2022/10/18 04:08:51;;;;;;;11.20;8.63;;;;;;;5.92;64.95;96353.50;5102775;28;20204;-66
2022/10/18 04:11:18;;;;;;;11.25;9.23;;;;;;;5.91;64.68;96353.72;5102552;28;20196;-66
2022/10/18 04:14:05;;;;;;;11.85;10.65;;;;;;;5.92;64.88;96353.50;5117325;28;20211;-66
2022/10/18 04:16:34;;;;;;;12.50;10.82;;;;;;;5.93;64.73;96352.38;5102091;28;20562;-66
2022/10/18 04:19:01;;;;;;;15.15;11.75;;;;;;;5.88;64.70;96352.41;5119957;28;20188;-67
2022/10/18 04:21:27;;;;;;;17.15;10.85;;;;;;;5.86;64.82;96351.06;5119233;28;20651;-69
2022/10/18 04:23:54;;;;;;;13.95;10.48;;;;;;;5.80;64.87;96355.78;5119816;28;20187;-66
2022/10/18 04:26:21;;;;;;;11.02;9.93;;;;;;;5.80;64.69;96359.31;5119425;28;20200;-66
2022/10/18 04:28:48;;;;;;;15.25;9.73;;;;;;;5.77;64.79;96359.09;5119562;28;20202;-66
2022/10/18 04:31:17;;;;;;;10.35;9.25;;;;;;;5.77;65.12;96365.41;5102589;28;20196;-66
2022/10/18 04:33:45;;;;;;;10.50;8.68;;;;;;;5.82;65.15;96353.56;5119659;28;20192;-66
2022/10/18 04:36:12;;;;;;;16.17;10.65;;;;;;;5.86;65.22;96354.63;5101932;28;20188;-66
2022/10/18 04:38:38;;;;;;;12.98;10.23;;;;;;;5.86;65.49;96356.53;5119276;28;20535;-66
2022/10/18 04:41:06;;;;;;;13.50;10.25;;;;;;;5.80;65.26;96351.09;5119694;28;20176;-66
2022/10/18 04:43:33;;;;;;;12.75;11.00;;;;;;;5.76;65.26;96352.00;5119280;28;20218;-66
2022/10/18 04:45:59;;;;;;;13.88;11.13;;;;;;;5.73;65.63;96356.13;5119520;28;20562;-66
2022/10/18 04:48:26;;;;;;;13.05;10.85;;;;;;;5.77;65.51;96354.47;5101718;28;20204;-66
2022/10/18 04:50:54;;;;;;;12.68;11.43;;;;;;;5.79;65.62;96348.69;5101530;28;20195;-66
2022/10/18 04:53:21;;;;;;;16.90;11.95;;;;;;;5.83;65.64;96354.38;5118962;28;20184;-66
2022/10/18 04:55:49;;;;;;;17.08;11.75;;;;;;;5.83;65.52;96344.25;5101400;28;20216;-66
2022/10/18 04:58:16;;;;;;;18.27;12.30;;;;;;;5.83;65.70;96344.25;5119478;28;20183;-66
2022/10/18 05:00:42;;;;;;;18.52;13.25;;;;;;;5.80;65.16;96334.69;5119138;28;20195;-66
2022/10/18 05:03:10;;;;;;;15.50;12.07;;;;;;;5.77;65.51;96338.03;5118977;28;20180;-66
2022/10/18 05:05:36;;;;;;;16.48;12.35;;;;;;;5.72;65.58;96340.81;5101260;28;20192;-66
2022/10/18 05:08:05;;;;;;;17.02;13.00;;;;;;;5.73;65.89;96341.63;5101328;28;20203;-66
2022/10/18 05:10:32;;;;;;;17.63;12.88;;;;;;;5.76;65.97;96333.63;5100835;28;20210;-66
2022/10/18 05:12:58;;;;;;;19.63;13.32;;;;;;;5.76;65.93;96338.31;5101099;28;20582;-66
2022/10/18 05:15:25;;;;;;;22.42;14.00;;;;;;;5.77;65.88;96338.03;5100003;28;20223;-66
2022/10/18 05:17:52;;;;;;;19.75;14.43;;;;;;;5.80;65.98;96340.16;5100588;28;20232;-66
2022/10/18 05:20:19;;;;;;;23.17;14.32;;;;;;;5.80;66.08;96331.13;5118863;28;20195;-66
2022/10/18 05:22:46;;;;;;;21.40;14.10;;;;;;;5.78;65.93;96328.69;5100567;28;20207;-67
2022/10/18 05:25:14;;;;;;;18.70;13.32;;;;;;;5.80;65.99;96331.13;5118306;28;20175;-66
2022/10/18 05:27:41;;;;;;;18.08;13.50;;;;;;;5.86;65.83;96338.19;5118173;28;20199;-66
2022/10/18 05:30:08;;;;;;;24.15;13.77;;;;;;;5.90;65.87;96341.16;5100149;28;20196;-66
2022/10/18 05:32:35;;;;;;;26.35;14.93;;;;;;;5.93;65.90;96344.16;5117557;28;20223;-66
2022/10/18 05:35:02;;;;;;;23.90;14.95;;;;;;;5.95;65.84;96341.13;5118421;28;20280;-66
2022/10/18 05:37:29;;;;;;;22.15;14.32;;;;;;;5.98;65.81;96344.09;5118320;28;20176;-66
2022/10/18 05:39:55;;;;;;;20.67;14.40;;;;;;;5.96;65.90;96340.03;5100053;28;20208;-67
2022/10/18 05:42:23;;;;;;;23.70;14.95;;;;;;;5.98;66.13;96337.78;5100478;28;20192;-66
2022/10/18 05:44:50;;;;;;;21.63;14.25;;;;;;;6.03;66.21;96344.03;5117975;28;20199;-66
2022/10/18 05:47:17;;;;;;;26.75;15.25;;;;;;;6.11;66.08;96344.50;5118108;28;20195;-66
2022/10/18 05:49:44;;;;;;;24.13;15.50;;;;;;;6.14;66.45;96346.66;5100127;28;20192;-66
2022/10/18 05:52:10;;;;;;;24.65;16.45;;;;;;;6.15;66.25;96349.09;5118075;28;20187;-66
2022/10/18 05:54:37;;;;;;;21.23;17.10;;;;;;;6.20;66.14;96354.50;5099999;28;20235;-66
2022/10/18 05:57:04;;;;;;;28.67;18.08;;;;;;;6.25;66.70;96348.97;5100374;28;20203;-66
2022/10/18 05:59:32;;;;;;;25.10;19.27;;;;;;;6.30;66.51;96348.06;5118188;28;20200;-66
2022/10/18 06:01:59;;;;;;;24.50;21.52;;;;;;;6.35;66.88;96349.94;5117607;28;20183;-66
2022/10/18 06:04:25;;;;;;;29.23;23.25;;;;;;;6.41;66.61;96346.00;5099747;28;20211;-66
2022/10/18 06:06:52;;;;;;;25.40;20.75;;;;;;;6.46;66.26;96363.22;5117576;28;20207;-66
2022/10/18 06:09:19;;;;;;;24.77;19.48;;;;;;;6.48;66.49;96354.69;5117937;28;20192;-66
2022/10/18 06:11:46;;;;;;;20.92;18.48;;;;;;;6.51;65.89;96346.69;5099987;28;20195;-66
2022/10/18 06:14:12;;;;;;;23.00;20.63;;;;;;;6.57;65.81;96354.84;5099170;28;20196;-66
2022/10/18 06:16:41;;;;;;;26.85;23.98;;;;;;;6.59;66.13;96345.22;5117519;28;20215;-66
2022/10/18 06:19:07;;;;;;;26.95;22.80;;;;;;;6.65;65.78;96357.75;5117814;28;20269;-66
2022/10/18 06:21:34;;;;;;;26.80;23.30;;;;;;;6.74;65.82;96355.13;5099239;28;20195;-66
2022/10/18 06:24:01;;;;;;;24.30;21.73;;;;;;;6.81;66.10;96352.03;5099739;28;20207;-66
2022/10/18 06:26:28;;;;;;;22.40;20.17;;;;;;;6.86;66.06;96344.53;5099231;28;20200;-66
2022/10/18 06:28:55;;;;;;;23.85;21.25;;;;;;;6.88;65.72;96356.00;5099242;28;20200;-66
2022/10/18 06:31:22;;;;;;;18.95;16.95;;;;;;;6.95;65.56;96341.94;5117398;28;20186;-66
2022/10/18 06:33:50;;;;;;;18.58;16.67;;;;;;;7.00;65.30;96342.66;5117185;28;20188;-66
2022/10/18 06:36:17;;;;;;;19.55;17.55;;;;;;;7.08;65.33;96343.91;5117367;28;20208;-66
2022/10/18 06:38:45;;;;;;;21.10;18.92;;;;;;;7.17;65.13;96344.03;5117053;28;20203;-66
2022/10/18 06:41:12;;;;;;;26.15;19.15;;;;;;;7.23;65.40;96343.66;5099439;28;20188;-66
2022/10/18 06:43:38;;;;;;;18.58;16.08;;;;;;;7.32;64.85;96345.72;5117065;28;20194;-66
2022/10/18 06:46:08;;;;;;;16.25;14.55;;;;;;;7.32;64.46;96349.25;5116721;28;20502;-66
2022/10/18 06:48:35;;;;;;;16.80;15.00;;;;;;;7.40;65.05;96353.25;5116794;28;20199;-66
2022/10/18 06:51:05;;;;;;;17.95;16.08;;;;;;;7.54;65.73;96348.59;5116858;28;20180;-66
2022/10/18 06:53:33;;;;;;;18.50;15.65;;;;;;;7.67;66.02;96344.25;5116386;28;20656;-66
2022/10/18 06:56:00;;;;;;;17.00;14.65;;;;;;;7.78;65.75;96344.88;5116242;28;20208;-66
2022/10/18 06:58:27;;;;;;;17.20;13.05;;;;;;;7.87;65.48;96345.78;5098710;28;20254;-66
2022/10/18 07:00:54;;;;;;;16.13;14.32;;;;;;;7.96;65.59;96346.72;5116728;28;20188;-66
2022/10/18 07:03:21;;;;;;;16.63;14.20;;;;;;;8.04;65.12;96337.75;5098645;28;20188;-66
2022/10/18 07:05:48;;;;;;;14.57;13.00;;;;;;;8.09;64.17;96340.38;5116441;28;20184;-66
2022/10/18 07:08:17;;;;;;;13.38;12.02;;;;;;;8.12;64.44;96339.78;5116599;28;20195;-66
2022/10/18 07:10:51;;;;;;;14.35;12.90;;;;;;;8.22;64.80;96343.47;5098460;28;20204;-66
2022/10/18 07:13:17;;;;;;;12.18;11.07;;;;;;;8.29;63.96;96346.59;5116261;28;20636;-67
2022/10/18 07:15:44;;;;;;;12.30;10.65;;;;;;;8.37;63.66;96349.47;5116350;28;20204;-67
2022/10/18 07:18:11;;;;;;;13.00;11.70;;;;;;;8.46;63.48;96345.97;5116172;28;20195;-66
2022/10/18 07:20:38;;;;;;;12.48;11.00;;;;;;;8.52;63.05;96342.81;5116332;28;20188;-66
2022/10/18 07:23:07;;;;;;;13.43;12.02;;;;;;;8.59;62.74;96336.91;5116397;28;20265;-67
2022/10/18 07:25:35;;;;;;;13.40;11.93;;;;;;;8.67;62.62;96342.47;5098453;28;20679;-66
2022/10/18 07:28:02;;;;;;;13.98;12.55;;;;;;;8.73;62.18;96334.94;5116068;28;20188;-66
2022/10/18 07:30:29;;;;;;;17.67;15.65;;;;;;;8.81;62.17;96333.38;5098383;28;20214;-66
2022/10/18 07:32:56;;;;;;;17.88;16.10;;;;;;;8.89;62.08;96335.38;5115974;28;20184;-66
2022/10/18 07:35:22;;;;;;;22.27;19.98;;;;;;;8.97;61.73;96333.81;5115777;28;20208;-66
2022/10/18 07:37:49;;;;;;;20.73;18.75;;;;;;;9.03;61.77;96325.13;5116040;28;20191;-66
2022/10/18 07:40:16;;;;;;;20.88;18.77;;;;;;;9.12;62.00;96325.22;5097805;28;20187;-66
2022/10/18 07:42:44;;;;;;;21.10;18.90;;;;;;;9.18;61.24;96315.69;5081243;28;20620;-66
2022/10/18 07:45:12;;;;;;;23.27;20.93;;;;;;;9.27;61.41;96313.00;5097915;28;20192;-66
2022/10/18 07:47:39;;;;;;;21.85;19.55;;;;;;;9.37;61.87;96318.25;5116221;28;20184;-66
2022/10/18 07:50:07;;;;;;;20.90;18.63;;;;;;;9.46;61.43;96315.53;5115594;28;20184;-66
2022/10/18 07:52:33;;;;;;;20.05;17.85;;;;;;;9.57;61.09;96311.38;5115365;28;20184;-66
2022/10/18 07:55:00;;;;;;;20.05;17.88;;;;;;;9.63;60.42;96315.63;5115579;28;20236;-66
2022/10/18 07:57:27;;;;;;;18.90;16.35;;;;;;;9.71;60.69;96297.53;5098395;28;20207;-66
2022/10/18 07:59:56;;;;;;;16.38;14.80;;;;;;;9.82;60.03;96307.94;5116019;28;20214;-66
2022/10/18 08:02:23;;;;;;;15.27;13.60;;;;;;;9.95;59.61;96305.38;5115546;28;20266;-66
2022/10/18 08:04:50;;;;;;;16.55;14.85;;;;;;;10.04;58.99;96300.72;5098040;28;20204;-66
2022/10/18 08:07:17;;;;;;;16.83;14.98;;;;;;;10.19;60.06;96296.72;5098274;28;20191;-66
2022/10/18 08:09:45;;;;;;;16.80;15.20;;;;;;;10.36;59.40;96296.78;5115742;28;20183;-66
2022/10/18 08:12:14;;;;;;;16.83;13.77;;;;;;;10.49;58.20;96295.00;5097763;28;20206;-67
2022/10/18 08:14:41;;;;;;;14.50;13.00;;;;;;;10.51;58.36;96288.03;5115673;28;20188;-66
2022/10/18 08:17:09;;;;;;;15.50;13.90;;;;;;;10.58;58.09;96282.84;5098437;28;20223;-66
2022/10/18 08:19:36;;;;;;;23.25;17.55;;;;;;;10.74;58.36;96287.91;5115704;28;20195;-66
2022/10/18 08:22:02;;;;;;;19.80;17.10;;;;;;;10.90;58.56;96286.28;5097807;28;20195;-66
2022/10/18 08:24:29;;;;;;;19.50;17.48;;;;;;;11.00;58.26;96279.59;5097614;28;20203;-66
2022/10/18 08:26:56;;;;;;;20.30;16.95;;;;;;;11.18;57.54;96281.19;5097955;28;20188;-66
2022/10/18 08:29:23;;;;;;;17.65;15.13;;;;;;;11.21;56.47;96271.47;5115887;28;20204;-66
2022/10/18 08:31:50;;;;;;;16.33;14.73;;;;;;;11.26;55.89;96265.78;5098132;28;20507;-66
2022/10/18 08:34:18;;;;;;;17.23;15.52;;;;;;;11.32;55.93;96262.50;5097643;28;20249;-66
2022/10/18 08:36:44;;;;;;;18.42;15.82;;;;;;;11.38;56.35;96260.38;5115568;28;20215;-66
2022/10/18 08:39:11;;;;;;;18.05;16.08;;;;;;;11.46;55.55;96245.72;5115795;28;20196;-66
2022/10/18 08:41:49;;;;;;;21.17;18.17;;;;;;;11.49;55.38;96250.59;5097858;28;20211;-66
2022/10/18 08:44:20;;;;;;;18.35;16.45;;;;;;;11.50;55.45;96243.13;5097201;28;20203;-66
2022/10/18 08:46:48;;;;;;;19.80;17.17;;;;;;;11.69;55.80;96235.25;5115327;28;20180;-66
2022/10/18 08:49:23;;;;;;;19.35;16.90;;;;;;;11.80;55.93;96225.44;5097392;28;20196;-66
2022/10/18 08:51:50;;;;;;;17.27;14.88;;;;;;;11.95;55.16;96232.41;5117522;28;20183;-66
2022/10/18 08:54:23;;;;;;;17.65;13.57;;;;;;;12.10;55.01;96222.72;5110607;27;20588;-66
2022/10/18 08:56:58;;;;;;;18.73;14.27;;;;;;;12.15;54.18;96225.28;5122167;27;20210;-66
2022/10/18 08:59:25;;;;;;;16.42;14.57;;;;;;;12.25;53.56;96222.13;5121787;27;20194;-66
2022/10/18 09:01:59;;;;;;;17.08;14.38;;;;;;;12.44;55.25;96215.31;5139498;27;20171;-66
2022/10/18 09:04:39;;;;;;;15.93;13.82;;;;;;;12.72;53.27;96221.13;5121472;27;20197;-66
2022/10/18 09:07:19;;;;;;;16.20;14.40;;;;;;;12.76;52.93;96217.34;5139269;27;20194;-66
2022/10/18 09:09:48;;;;;;;16.88;14.75;;;;;;;12.92;52.59;96220.28;5139228;27;20543;-66
2022/10/18 09:12:30;;;;;;;16.83;15.20;;;;;;;13.10;51.86;96217.34;5139213;27;20179;-66
2022/10/18 09:15:08;;;;;;;16.27;14.40;;;;;;;13.12;51.71;96207.56;5139084;27;20188;-66
2022/10/18 09:17:41;;;;;;;16.60;14.93;;;;;;;13.23;52.00;96214.31;5139275;27;20207;-66
2022/10/18 09:20:20;;;;;;;15.93;14.25;;;;;;;13.43;51.81;96209.03;5139168;27;20186;-66
2022/10/18 09:22:53;;;;;;;16.25;13.95;;;;;;;13.55;50.74;96200.75;5121101;27;20232;-66
2022/10/18 09:25:21;;;;;;;17.08;13.32;;;;;;;13.67;50.15;96208.25;5121314;27;20260;-66
2022/10/18 09:27:53;;;;;;;15.35;13.02;;;;;;;13.75;49.41;96204.56;5121162;27;20187;-66
2022/10/18 09:30:29;;;;;;;15.75;13.60;;;;;;;13.86;50.48;96204.91;5139137;27;20203;-66
2022/10/18 09:33:05;;;;;;;15.68;13.57;;;;;;;13.96;50.55;96196.94;5121095;27;20194;-66
2022/10/18 09:35:39;;;;;;;17.23;13.25;;;;;;;14.10;50.51;96196.59;5138592;27;20209;-66
2022/10/18 09:38:10;;;;;;;15.05;13.15;;;;;;;14.26;50.25;96196.69;5120583;27;20213;-66
2022/10/18 09:40:43;;;;;;;15.93;13.75;;;;;;;14.34;49.60;96192.16;5121242;27;20203;-66
2022/10/18 09:43:13;;;;;;;16.63;14.23;;;;;;;14.46;49.42;96186.59;5120262;27;20633;-66
2022/10/18 09:45:40;;;;;;;18.70;13.98;;;;;;;14.59;50.15;96185.41;5138588;27;20187;-66
2022/10/18 09:48:12;;;;;;;16.83;12.45;;;;;;;14.71;46.78;96173.47;5138536;27;20187;-66
2022/10/18 09:50:42;;;;;;;14.88;13.02;;;;;;;14.82;46.79;96173.78;5138234;27;20183;-66
2022/10/18 09:53:17;;;;;;;14.63;13.02;;;;;;;14.95;47.12;96174.53;5120256;27;20232;-67
2022/10/18 09:55:54;;;;;;;13.23;11.80;;;;;;;15.10;45.57;96177.34;5138360;27;20191;-67
2022/10/18 09:58:23;;;;;;;13.30;11.95;;;;;;;15.12;46.07;96171.44;5137817;27;20481;-66
2022/10/18 10:00:51;;;;;;;15.50;12.10;;;;;;;15.19;45.30;96165.28;5138261;27;20206;-67
2022/10/18 10:03:18;;;;;;;12.70;10.75;;;;;;;15.25;45.23;96166.59;5137952;27;20183;-66
2022/10/18 10:05:46;;;;;;;15.25;11.63;;;;;;;15.34;45.08;96148.59;5120482;27;20198;-66
2022/10/18 10:08:13;;;;;;;12.63;10.25;;;;;;;15.41;45.32;96153.56;5120100;27;20204;-66
2022/10/18 10:10:46;;;;;;;13.07;10.60;;;;;;;15.44;44.86;96152.03;5120469;27;20206;-66
2022/10/18 10:13:20;;;;;;;11.98;9.82;;;;;;;15.53;43.78;96135.97;5120506;27;20217;-66
2022/10/18 10:15:53;;;;;;;10.88;8.85;;;;;;;15.61;44.28;96137.75;5120071;27;20190;-66
2022/10/18 10:18:21;;;;;;;11.88;10.07;;;;;;;15.75;44.43;96129.78;5138059;27;20185;-66
2022/10/18 10:20:52;;;;;;;15.63;9.50;;;;;;;15.84;43.84;96129.63;5120291;27;20206;-66
2022/10/18 10:23:21;;;;;;;14.70;9.98;;;;;;;15.93;43.16;96116.31;5137810;27;20277;-66
2022/10/18 10:25:51;;;;;;;9.75;8.65;;;;;;;15.86;44.25;96114.16;5137944;27;20183;-66
2022/10/18 10:28:20;;;;;;;10.45;8.85;;;;;;;15.88;43.63;96105.47;5119695;27;20195;-66
2022/10/18 10:30:47;;;;;;;11.82;8.23;;;;;;;15.88;44.25;96105.47;5137714;27;20190;-66
2022/10/18 10:33:32;;;;;;;9.45;7.72;;;;;;;15.87;44.25;96101.09;5119931;27;20622;-66
2022/10/18 10:36:01;;;;;;;10.25;8.38;;;;;;;16.00;43.44;96099.78;5137704;27;20194;-66
2022/10/18 10:38:29;;;;;;;9.18;7.78;;;;;;;16.03;42.88;96087.91;5138018;27;20190;-66
2022/10/18 10:40:56;;;;;;;10.25;8.20;;;;;;;15.99;41.50;96080.66;5138152;27;20179;-66
2022/10/18 10:43:25;;;;;;;8.43;7.65;;;;;;;15.91;42.69;96076.94;5119642;27;20263;-66
2022/10/18 10:46:00;;;;;;;8.73;7.30;;;;;;;15.94;42.14;96069.81;5119617;27;20195;-66
2022/10/18 10:48:28;;;;;;;10.07;7.80;;;;;;;15.93;42.58;96063.44;5119777;27;20198;-66
2022/10/18 10:51:03;;;;;;;8.25;7.55;;;;;;;16.10;43.11;96062.22;5119250;27;20194;-66
2022/10/18 10:53:49;;;;;;;9.68;7.60;;;;;;;16.19;42.96;96056.44;5116199;27;20235;-66
2022/10/18 10:56:22;;;;;;;9.65;7.13;;;;;;;16.41;42.06;96050.13;5116237;28;20214;-66
2022/10/18 10:58:49;;;;;;;12.38;8.35;;;;;;;16.57;41.45;96047.28;5117016;28;20211;-66
2022/10/18 11:01:25;;;;;;;9.70;7.72;;;;;;;16.65;41.75;96037.88;5116741;28;20192;-66
2022/10/18 11:03:53;;;;;;;8.27;6.70;;;;;;;16.66;40.87;96033.94;5116382;28;20202;-66
2022/10/18 11:06:39;;;;;;;7.45;6.45;;;;;;;16.66;41.96;96025.56;5098817;28;20522;-66
2022/10/18 11:09:13;;;;;;;9.25;6.80;;;;;;;16.73;42.25;96031.28;5099030;28;20196;-66
2022/10/18 11:11:45;;;;;;;5.90;5.28;;;;;;;16.86;41.42;96022.78;5116599;28;20257;-66
2022/10/18 11:14:17;;;;;;;7.78;5.60;;;;;;;16.97;40.07;96029.34;5115541;28;20286;-66
2022/10/18 11:16:51;;;;;;;6.60;5.95;;;;;;;16.96;40.38;96016.63;5116302;28;20211;-66
2022/10/18 11:19:29;;;;;;;6.47;5.78;;;;;;;17.00;40.45;96012.72;5116143;28;20184;-66
2022/10/18 11:21:59;;;;;;;8.25;6.18;;;;;;;17.03;40.15;96011.13;5115986;28;20180;-66
2022/10/18 11:24:26;;;;;;;7.30;5.38;;;;;;;17.03;41.27;96000.00;5098566;28;20214;-66
2022/10/18 11:26:56;;;;;;;8.05;5.55;;;;;;;16.98;39.18;95991.94;5115870;28;20176;-66
2022/10/18 11:29:32;;;;;;;7.30;5.72;;;;;;;16.98;40.57;95987.19;5115804;28;20216;-66
2022/10/18 11:32:09;;;;;;;7.10;4.97;;;;;;;16.99;40.31;95977.66;5116085;28;20179;-66
2022/10/18 11:34:54;;;;;;;6.53;5.00;;;;;;;17.06;40.21;95971.38;5098276;28;20219;-66
2022/10/18 11:37:32;;;;;;;8.95;6.28;;;;;;;17.21;38.83;95966.84;5114616;28;20370;-66